createdAt,value
2019-04-05T00:00:02.666Z,1.40
2019-04-05T00:02:31.174Z,1.23
2019-04-05T00:04:59.443Z,1.50
2019-04-05T00:07:27.693Z,1.10
2019-04-05T00:09:55.945Z,1.40
2019-04-05T00:12:24.206Z,1.30
2019-04-05T00:14:52.464Z,1.30
2019-04-05T00:17:20.798Z,1.37
2019-04-05T00:19:49.056Z,1.30
2019-04-05T00:22:17.319Z,1.40
2019-04-05T00:24:45.854Z,1.33
2019-04-05T00:27:14.118Z,1.97
2019-04-05T00:29:42.373Z,1.03
2019-04-05T00:32:10.638Z,1.20
2019-04-05T00:34:38.891Z,1.10
2019-04-05T00:37:07.160Z,1.30
2019-04-05T00:39:35.416Z,1.20
2019-04-05T00:42:03.683Z,1.43
2019-04-05T00:44:32.402Z,1.30
2019-04-05T00:47:00.658Z,1.20
2019-04-05T00:49:28.922Z,1.30
2019-04-05T00:51:57.754Z,1.20
2019-04-05T00:54:26.014Z,1.07
2019-04-05T00:56:54.558Z,1.60
2019-04-05T00:59:22.810Z,1.40
2019-04-05T01:01:51.070Z,1.17
2019-04-05T01:04:19.323Z,1.30
2019-04-05T01:06:47.590Z,1.30
2019-04-05T01:09:15.846Z,1.13
2019-04-05T01:11:44.118Z,1.33
2019-04-05T01:14:12.374Z,1.27
2019-04-05T01:16:41.227Z,1.40
2019-04-05T01:19:10.149Z,1.43
2019-04-05T01:21:39.169Z,1.10
2019-04-05T01:24:07.441Z,1.20
2019-04-05T01:26:36.057Z,1.50
2019-04-05T01:29:04.337Z,1.37
2019-04-05T01:31:32.589Z,1.33
2019-04-05T01:34:01.150Z,1.30
2019-04-05T01:36:29.398Z,1.50
2019-04-05T01:38:57.670Z,1.50
2019-04-05T01:41:25.918Z,1.20
2019-04-05T01:43:54.178Z,1.20
2019-04-05T01:46:22.434Z,1.13
2019-04-05T01:48:50.697Z,1.20
2019-04-05T01:51:18.950Z,1.40
2019-04-05T01:53:47.217Z,1.20
2019-04-05T01:56:15.465Z,1.83
2019-04-05T01:58:43.735Z,1.20
2019-04-05T02:01:11.991Z,1.50
2019-04-05T02:03:40.250Z,1.30
2019-04-05T02:06:08.515Z,1.37
2019-04-05T02:08:37.351Z,1.47
2019-04-05T02:11:05.606Z,1.30
2019-04-05T02:13:33.879Z,1.40
2019-04-05T02:16:06.440Z,1.17
2019-04-05T02:18:32.131Z,1.30
2019-04-05T02:21:00.386Z,1.20
2019-04-05T02:23:28.668Z,1.37
2019-04-05T02:25:56.926Z,1.13
2019-04-05T02:28:25.534Z,1.30
2019-04-05T02:30:54.015Z,1.60
2019-04-05T02:33:22.283Z,1.30
2019-04-05T02:35:50.540Z,1.23
2019-04-05T02:38:18.871Z,1.50
2019-04-05T02:40:47.712Z,1.10
2019-04-05T02:43:15.968Z,1.07
2019-04-05T02:45:44.504Z,2.10
2019-04-05T02:48:12.755Z,1.40
2019-04-05T02:50:43.431Z,1.37
2019-04-05T02:53:11.695Z,1.80
2019-04-05T02:55:40.307Z,1.37
2019-04-05T02:58:08.559Z,1.20
2019-04-05T03:00:36.835Z,1.20
2019-04-05T03:03:05.251Z,1.47
2019-04-05T03:05:33.807Z,1.63
2019-04-05T03:08:02.071Z,1.20
2019-04-05T03:10:53.079Z,1.47
2019-04-05T03:13:23.479Z,1.33
2019-04-05T03:15:52.687Z,1.30
2019-04-05T03:18:21.215Z,1.30
2019-04-05T03:20:49.475Z,1.40
2019-04-05T03:23:17.739Z,1.43
2019-04-05T03:25:48.149Z,1.60
2019-04-05T03:28:15.994Z,1.50
2019-04-05T03:30:44.324Z,1.40
2019-04-05T03:33:12.592Z,1.70
2019-04-05T03:35:41.129Z,1.40
2019-04-05T03:38:09.387Z,1.40
2019-04-05T03:40:37.665Z,1.30
2019-04-05T03:43:05.902Z,1.60
2019-04-05T03:45:34.171Z,1.20
2019-04-05T03:48:02.436Z,1.50
2019-04-05T03:50:30.703Z,1.30
2019-04-05T03:52:58.958Z,1.60
2019-04-05T03:55:27.227Z,1.20
2019-04-05T03:57:55.481Z,1.10
2019-04-05T04:00:23.753Z,1.37
2019-04-05T04:02:52.014Z,1.37
2019-04-05T04:05:20.278Z,1.57
2019-04-05T04:07:48.538Z,1.77
2019-04-05T04:10:19.524Z,1.33
2019-04-05T04:12:47.780Z,1.70
2019-04-05T04:15:16.308Z,1.30
2019-04-05T04:17:44.574Z,1.33
2019-04-05T04:20:31.167Z,1.50
2019-04-05T04:22:59.436Z,1.40
2019-04-05T04:25:27.958Z,1.30
2019-04-05T04:27:56.236Z,1.60
2019-04-05T04:30:24.491Z,1.23
2019-04-05T04:32:52.759Z,1.30
2019-04-05T04:35:21.011Z,1.50
2019-04-05T04:37:49.283Z,1.30
2019-04-05T04:40:17.538Z,1.40
2019-04-05T04:42:45.983Z,1.23
2019-04-05T04:45:14.239Z,1.40
2019-04-05T04:47:42.501Z,1.20
2019-04-05T04:50:10.935Z,1.23
2019-04-05T04:52:39.198Z,1.30
2019-04-05T04:55:07.731Z,1.30
2019-04-05T04:57:35.995Z,1.47
2019-04-05T05:00:05.022Z,1.30
2019-04-05T05:02:33.316Z,1.30
2019-04-05T05:05:01.639Z,1.20
2019-04-05T05:07:29.905Z,1.10
2019-04-05T05:09:58.331Z,1.40
2019-04-05T05:12:26.594Z,1.30
2019-04-05T05:14:55.418Z,2.00
2019-04-05T05:17:23.682Z,2.00
2019-04-05T05:19:51.958Z,5.63
2019-04-05T05:22:20.523Z,5.43
2019-04-05T05:24:48.792Z,6.90
2019-04-05T05:27:17.046Z,8.73
2019-04-05T05:29:45.890Z,10.67
2019-04-05T05:32:14.154Z,9.20
2019-04-05T05:34:42.421Z,8.60
2019-04-05T05:37:10.687Z,9.33
2019-04-05T05:39:38.955Z,8.50
2019-04-05T05:42:07.215Z,10.13
2019-04-05T05:44:35.487Z,9.17
2019-04-05T05:47:04.311Z,8.83
2019-04-05T05:49:32.887Z,8.97
2019-04-05T05:52:01.985Z,8.37
2019-04-05T05:54:30.264Z,8.40
2019-04-05T05:56:59.160Z,7.53
2019-04-05T05:59:30.217Z,9.93
2019-04-05T06:01:57.995Z,10.70
2019-04-05T06:04:26.270Z,10.60
2019-04-05T06:06:54.531Z,10.30
2019-04-05T06:09:22.855Z,10.03
2019-04-05T06:11:51.132Z,9.07
2019-04-05T06:14:19.411Z,10.27
2019-04-05T06:16:48.004Z,9.50
2019-04-05T06:19:16.285Z,10.70
2019-04-05T06:21:44.550Z,10.70
2019-04-05T06:24:12.823Z,10.80
2019-04-05T06:26:42.327Z,9.70
2019-04-05T06:29:10.666Z,10.17
2019-04-05T06:31:38.938Z,10.63
2019-04-05T06:34:07.718Z,8.83
2019-04-05T06:36:36.055Z,9.70
2019-04-05T06:39:06.766Z,10.73
2019-04-05T06:41:35.138Z,9.87
2019-04-05T06:44:03.467Z,9.03
2019-04-05T06:46:31.770Z,9.43
2019-04-05T06:49:00.027Z,9.37
2019-04-05T06:51:28.321Z,8.13
2019-04-05T06:53:57.249Z,8.43
2019-04-05T06:56:25.515Z,8.53
2019-04-05T06:58:53.775Z,7.83
2019-04-05T07:01:22.804Z,8.63
2019-04-05T07:03:51.378Z,7.83
2019-04-05T07:06:19.814Z,7.30
2019-04-05T07:08:53.747Z,8.30
2019-04-05T07:11:18.070Z,7.80
2019-04-05T07:13:47.007Z,8.37
2019-04-05T07:16:15.355Z,8.37
2019-04-05T07:18:44.296Z,7.90
2019-04-05T07:21:13.139Z,7.97
2019-04-05T07:23:41.401Z,8.10
2019-04-05T07:26:09.671Z,7.40
2019-04-05T07:28:37.961Z,7.20
2019-04-05T07:31:06.228Z,7.13
2019-04-05T07:33:34.759Z,7.87
2019-04-05T07:36:03.575Z,7.30
2019-04-05T07:38:32.070Z,7.37
2019-04-05T07:41:00.336Z,7.27
2019-04-05T07:43:28.591Z,7.40
2019-04-05T07:45:56.888Z,7.00
2019-04-05T07:48:25.152Z,7.20
2019-04-05T07:50:53.415Z,6.80
2019-04-05T07:53:21.691Z,6.53
2019-04-05T07:55:49.957Z,7.43
2019-04-05T07:58:18.225Z,7.20
2019-04-05T08:00:51.524Z,6.37
2019-04-05T08:03:20.018Z,6.97
2019-04-05T08:05:48.614Z,7.07
2019-04-05T08:08:34.998Z,6.50
2019-04-05T08:11:03.283Z,6.67
2019-04-05T08:13:31.555Z,6.93
2019-04-05T08:16:01.310Z,7.03
2019-04-05T08:18:29.758Z,6.93
2019-04-05T08:20:58.014Z,7.00
2019-04-05T08:23:26.855Z,6.70
2019-04-05T08:25:55.789Z,6.57
2019-04-05T08:28:24.049Z,6.90
2019-04-05T08:30:52.311Z,6.27
2019-04-05T08:33:20.605Z,6.00
2019-04-05T08:35:48.865Z,6.53
2019-04-05T08:38:17.135Z,6.13
2019-04-05T08:40:45.393Z,6.33
2019-04-05T08:43:13.664Z,6.10
2019-04-05T08:45:41.916Z,5.67
2019-04-05T08:48:10.197Z,5.70
2019-04-05T08:50:38.443Z,5.90
2019-04-05T08:53:07.027Z,5.90
2019-04-05T08:55:35.284Z,6.00
2019-04-05T08:58:03.552Z,5.90
2019-04-05T09:00:31.807Z,6.17
2019-04-05T09:03:00.107Z,5.73
2019-04-05T09:05:28.360Z,5.97
2019-04-05T09:07:56.610Z,5.77
2019-04-05T09:10:24.881Z,5.93
2019-04-05T09:12:53.429Z,4.90
2019-04-05T09:15:21.774Z,6.27
2019-04-05T09:17:50.391Z,6.17
2019-04-05T09:20:18.652Z,5.83
2019-04-05T09:22:47.491Z,6.10
2019-04-05T09:25:15.827Z,5.50
2019-04-05T09:27:44.924Z,5.47
2019-04-05T09:30:13.184Z,5.63
2019-04-05T09:32:41.442Z,5.23
2019-04-05T09:35:09.711Z,5.67
2019-04-05T09:37:38.643Z,5.47
2019-04-05T09:40:06.934Z,5.73
2019-04-05T09:42:35.179Z,5.30
2019-04-05T09:45:04.555Z,5.53
2019-04-05T09:47:32.811Z,5.23
2019-04-05T09:50:01.167Z,5.07
2019-04-05T09:52:29.442Z,5.77
2019-04-05T09:54:57.712Z,7.10
2019-04-05T09:57:26.047Z,7.27
2019-04-05T09:59:54.310Z,7.13
2019-04-05T10:02:23.150Z,7.70
2019-04-05T10:04:51.424Z,9.23
2019-04-05T10:07:19.690Z,9.47
2019-04-05T10:09:50.448Z,7.87
2019-04-05T10:12:18.262Z,7.47
2019-04-05T10:14:46.579Z,7.80
2019-04-05T10:17:14.986Z,7.27
2019-04-05T10:19:49.837Z,6.57
2019-04-05T10:22:13.538Z,6.80
2019-04-05T10:24:41.815Z,6.63
2019-04-05T10:27:10.084Z,5.93
2019-04-05T10:29:38.706Z,6.50
2019-04-05T10:32:06.983Z,6.50
2019-04-05T10:34:35.835Z,6.00
2019-04-05T10:37:04.182Z,6.43
2019-04-05T10:39:32.508Z,6.40
2019-04-05T10:42:03.766Z,7.40
2019-04-05T10:44:31.349Z,6.37
2019-04-05T10:46:59.868Z,7.87
2019-04-05T10:49:28.128Z,7.17
2019-04-05T10:51:56.403Z,7.13
2019-04-05T10:54:24.654Z,7.03
2019-04-05T10:56:52.928Z,6.63
2019-04-05T10:59:21.186Z,6.90
2019-04-05T11:01:49.459Z,6.97
2019-04-05T11:04:17.719Z,7.10
2019-04-05T11:06:45.974Z,6.70
2019-04-05T11:09:14.814Z,6.27
2019-04-05T11:11:43.079Z,6.40
2019-04-05T11:14:13.926Z,6.20
2019-04-05T11:16:41.898Z,6.20
2019-04-05T11:19:10.739Z,5.93
2019-04-05T11:21:38.994Z,6.10
2019-04-05T11:24:07.255Z,6.07
2019-04-05T11:26:35.515Z,6.23
2019-04-05T11:29:03.782Z,7.00
2019-04-05T11:31:32.044Z,6.03
2019-04-05T11:34:03.249Z,5.90
2019-04-05T11:36:31.744Z,6.43
2019-04-05T11:39:00.063Z,5.20
2019-04-05T11:41:28.318Z,5.90
2019-04-05T11:43:58.419Z,6.10
2019-04-05T11:46:26.575Z,5.53
2019-04-05T11:48:54.843Z,5.73
2019-04-05T11:51:23.094Z,5.43
2019-04-05T11:53:51.368Z,5.30
2019-04-05T11:56:20.576Z,5.37
2019-04-05T11:58:49.810Z,6.03
2019-04-05T12:01:19.999Z,5.60
2019-04-05T12:03:48.267Z,5.20
2019-04-05T12:06:16.527Z,5.63
2019-04-05T12:08:44.794Z,5.60
2019-04-05T12:11:13.051Z,5.00
2019-04-05T12:13:41.371Z,5.00
2019-04-05T12:16:10.559Z,5.20
2019-04-05T12:18:39.142Z,5.20
2019-04-05T12:21:07.395Z,5.77
2019-04-05T12:23:35.655Z,5.33
2019-04-05T12:26:04.876Z,5.43
2019-04-05T12:28:33.369Z,6.20
2019-04-05T12:31:01.679Z,5.70
2019-04-05T12:33:29.939Z,5.63
2019-04-05T12:35:58.209Z,4.87
2019-04-05T12:38:32.490Z,5.20
2019-04-05T12:41:01.890Z,5.50
2019-04-05T12:43:30.335Z,4.83
2019-04-05T12:45:58.607Z,5.03
2019-04-05T12:48:26.858Z,5.77
2019-04-05T12:51:00.918Z,6.00
2019-04-05T12:53:26.918Z,6.40
2019-04-05T12:55:56.939Z,6.50
2019-04-05T12:58:25.883Z,6.43
2019-04-05T13:00:56.211Z,6.97
2019-04-05T13:03:25.233Z,7.07
2019-04-05T13:05:53.534Z,9.00
2019-04-05T13:08:23.644Z,8.27
2019-04-05T13:10:55.301Z,8.97
2019-04-05T13:13:21.791Z,8.97
2019-04-05T13:15:50.063Z,7.33
2019-04-05T13:18:18.314Z,7.10
2019-04-05T13:20:46.587Z,7.10
2019-04-05T13:23:14.842Z,8.07
2019-04-05T13:25:43.490Z,7.03
2019-04-05T13:28:13.631Z,6.00
2019-04-05T13:30:41.742Z,6.50
2019-04-05T13:33:10.032Z,6.70
2019-04-05T13:35:38.353Z,7.03
2019-04-05T13:38:06.609Z,6.30
2019-04-05T13:40:34.923Z,5.97
2019-04-05T13:43:03.255Z,5.97
2019-04-05T13:45:31.555Z,5.93
2019-04-05T13:47:59.818Z,5.63
2019-04-05T13:50:28.078Z,5.57
2019-04-05T13:52:56.346Z,7.77
2019-04-05T13:55:24.609Z,7.10
2019-04-05T13:57:52.879Z,8.43
2019-04-05T14:00:21.304Z,10.57
2019-04-05T14:02:50.823Z,8.97
2019-04-05T14:05:22.288Z,8.13
2019-04-05T14:07:50.249Z,8.47
2019-04-05T14:10:18.516Z,7.93
2019-04-05T14:12:46.786Z,8.53
2019-04-05T14:15:15.183Z,7.97
2019-04-05T14:17:44.812Z,7.67
2019-04-05T14:20:13.255Z,7.13
2019-04-05T14:22:41.528Z,7.90
2019-04-05T14:25:10.662Z,7.40
2019-04-05T14:27:38.926Z,7.60
2019-04-05T14:30:07.361Z,7.10
2019-04-05T14:32:35.623Z,7.40
2019-04-05T14:35:07.702Z,7.20
2019-04-05T14:37:35.905Z,7.30
2019-04-05T14:40:08.251Z,7.17
2019-04-05T14:42:36.510Z,6.67
2019-04-05T14:45:06.982Z,7.47
2019-04-05T14:47:35.284Z,6.67
2019-04-05T14:50:04.859Z,7.00
2019-04-05T14:52:33.115Z,7.30
2019-04-05T14:55:01.414Z,8.87
2019-04-05T14:57:29.667Z,8.87
2019-04-05T14:59:58.411Z,8.40
2019-04-05T15:02:26.670Z,7.80
2019-04-05T15:04:54.943Z,8.63
2019-04-05T15:07:23.271Z,8.00
2019-04-05T15:09:54.770Z,8.73
2019-04-05T15:12:21.527Z,9.30
2019-04-05T15:14:49.802Z,10.73
2019-04-05T15:17:18.122Z,10.97
2019-04-05T15:19:46.387Z,10.00
2019-04-05T15:22:14.939Z,10.33
2019-04-05T15:24:44.641Z,10.40
2019-04-05T15:27:13.202Z,10.17
2019-04-05T15:29:41.474Z,11.30
2019-04-05T15:32:10.309Z,10.90
2019-04-05T15:34:38.576Z,11.40
2019-04-05T15:37:06.834Z,11.40
2019-04-05T15:39:35.122Z,11.20
2019-04-05T15:42:04.038Z,10.63
2019-04-05T15:44:32.299Z,11.40
2019-04-05T15:47:00.846Z,11.17
2019-04-05T15:49:29.102Z,10.90
2019-04-05T15:51:59.029Z,11.43
2019-04-05T15:54:29.046Z,10.90
2019-04-05T15:56:57.386Z,10.27
2019-04-05T15:59:25.647Z,10.60
2019-04-05T16:01:53.918Z,11.67
2019-04-05T16:04:23.019Z,11.67
2019-04-05T16:06:51.291Z,11.80
2019-04-05T16:09:19.827Z,11.97
2019-04-05T16:11:48.108Z,12.13
2019-04-05T16:14:16.372Z,11.43
2019-04-05T16:16:45.215Z,11.03
2019-04-05T16:19:13.479Z,11.10
2019-04-05T16:21:41.758Z,10.97
2019-04-05T16:24:10.588Z,11.20
2019-04-05T16:26:38.859Z,10.00
2019-04-05T16:29:07.126Z,10.67
2019-04-05T16:31:35.390Z,11.67
2019-04-05T16:34:03.654Z,11.00
2019-04-05T16:36:31.927Z,11.07
2019-04-05T16:39:00.186Z,10.83
2019-04-05T16:41:28.457Z,11.10
2019-04-05T16:43:56.715Z,10.90
2019-04-05T16:46:25.031Z,10.33
2019-04-05T16:48:53.288Z,10.20
2019-04-05T16:51:21.538Z,9.27
2019-04-05T16:53:59.547Z,9.97
2019-04-05T16:56:28.146Z,8.80
2019-04-05T16:58:56.803Z,9.20
2019-04-05T17:01:27.250Z,9.10
2019-04-05T17:03:55.507Z,8.50
2019-04-05T17:06:23.769Z,8.47
2019-04-05T17:08:52.040Z,8.87
2019-04-05T17:11:20.306Z,8.50
2019-04-05T17:13:48.578Z,8.20
2019-04-05T17:16:16.838Z,8.87
2019-04-05T17:18:45.112Z,9.03
2019-04-05T17:21:13.370Z,9.30
2019-04-05T17:23:41.639Z,8.03
2019-04-05T17:26:09.927Z,9.17
2019-04-05T17:28:38.566Z,8.17
2019-04-05T17:31:06.834Z,7.77
2019-04-05T17:33:35.112Z,8.03
2019-04-05T17:36:03.361Z,7.90
2019-04-05T17:38:31.635Z,7.50
2019-04-05T17:40:59.898Z,7.40
2019-04-05T17:43:28.171Z,7.00
2019-04-05T17:45:57.004Z,6.93
2019-04-05T17:48:25.283Z,7.77
2019-04-05T17:50:53.535Z,7.90
2019-04-05T17:53:21.794Z,7.30
2019-04-05T17:55:50.322Z,7.73
2019-04-05T17:58:18.582Z,7.63
2019-04-05T18:00:46.859Z,7.10
2019-04-05T18:03:15.113Z,7.03
2019-04-05T18:05:43.964Z,7.20
2019-04-05T18:08:12.221Z,6.87
2019-04-05T18:10:40.791Z,7.07
2019-04-05T18:13:09.051Z,7.07
2019-04-05T18:15:37.318Z,6.43
2019-04-05T18:18:05.582Z,7.23
2019-04-05T18:20:33.856Z,6.83
2019-04-05T18:23:02.127Z,6.87
2019-04-05T18:25:30.390Z,7.23
2019-04-05T18:27:58.646Z,6.63
2019-04-05T18:30:27.489Z,6.10
2019-04-05T18:32:55.738Z,6.60
2019-04-05T18:35:24.002Z,7.00
2019-04-05T18:37:52.257Z,6.53
2019-04-05T18:40:20.522Z,6.67
2019-04-05T18:42:48.786Z,6.53
2019-04-05T18:45:17.050Z,6.43
2019-04-05T18:47:45.306Z,6.17
2019-04-05T18:50:13.574Z,6.53
2019-04-05T18:52:41.827Z,5.83
2019-04-05T18:55:10.090Z,6.00
2019-04-05T18:57:38.350Z,5.90
2019-04-05T19:00:07.346Z,6.07
2019-04-05T19:02:35.782Z,5.87
2019-04-05T19:05:05.584Z,5.53
2019-04-05T19:07:33.846Z,6.47
2019-04-05T19:10:02.107Z,6.00
2019-04-05T19:12:30.397Z,6.03
2019-04-05T19:14:58.712Z,6.10
2019-04-05T19:17:26.983Z,6.00
2019-04-05T19:19:55.231Z,6.23
2019-04-05T19:22:23.503Z,6.23
2019-04-05T19:24:51.762Z,5.90
2019-04-05T19:27:20.026Z,5.53
2019-04-05T19:29:48.289Z,6.70
2019-04-05T19:49:47.446Z,6.07
2019-04-05T19:52:15.715Z,6.17
2019-04-05T19:54:44.543Z,4.87
2019-04-05T19:57:12.812Z,5.13
2019-04-05T19:59:41.219Z,5.20
2019-04-05T20:02:09.475Z,5.43
2019-04-05T20:04:37.741Z,5.40
2019-04-05T20:07:06.008Z,4.93
2019-04-05T20:09:34.834Z,4.93
2019-04-05T20:12:03.091Z,5.27
2019-04-05T20:14:31.360Z,4.83
2019-04-05T20:16:59.618Z,5.13
2019-04-05T20:19:27.882Z,5.10
2019-04-05T20:21:56.147Z,4.53
2019-04-05T20:24:24.417Z,4.83
2019-04-05T20:26:52.674Z,5.00
2019-04-05T20:29:21.774Z,4.70
2019-04-05T20:31:50.134Z,4.97
2019-04-05T20:34:18.404Z,6.83
2019-04-05T20:36:46.762Z,6.63
2019-04-05T20:39:15.043Z,6.80
2019-04-05T20:41:43.378Z,6.53
2019-04-05T20:44:11.642Z,6.73
2019-04-05T20:46:40.763Z,6.00
2019-04-05T20:49:09.034Z,6.33
2019-04-05T20:51:37.295Z,5.53
2019-04-05T20:54:05.563Z,5.77
2019-04-05T20:56:33.818Z,6.13
2019-04-05T20:59:02.090Z,5.63
2019-04-05T21:01:30.525Z,5.30
2019-04-05T21:03:58.895Z,5.20
2019-04-05T21:06:27.147Z,5.47
2019-04-05T21:08:55.410Z,5.30
2019-04-05T21:11:27.057Z,5.10
2019-04-05T21:13:55.073Z,5.30
2019-04-05T21:16:23.328Z,4.87
2019-04-05T21:18:51.579Z,5.17
2019-04-05T21:21:19.871Z,5.33
2019-04-05T21:23:48.198Z,4.70
2019-04-05T21:26:16.543Z,5.17
2019-04-05T21:28:44.790Z,5.13
2019-04-05T21:31:13.066Z,4.60
2019-04-05T21:33:41.316Z,5.07
2019-04-05T21:36:09.590Z,5.07
2019-04-05T21:38:38.025Z,4.70
2019-04-05T21:41:06.283Z,5.37
2019-04-05T21:43:34.547Z,4.63
2019-04-05T21:46:02.902Z,5.20
2019-04-05T21:48:31.631Z,5.13
2019-04-05T21:50:59.902Z,4.63
2019-04-05T21:53:28.150Z,4.47
2019-04-05T21:55:56.450Z,5.00
2019-04-05T21:58:25.944Z,4.90
2019-04-05T22:00:56.042Z,4.67
2019-04-05T22:03:24.306Z,5.07
2019-04-05T22:05:52.575Z,5.00
2019-04-05T22:08:20.839Z,5.30
2019-04-05T22:10:49.098Z,4.73
2019-04-05T22:13:17.455Z,4.17
2019-04-05T22:15:45.792Z,4.50
2019-04-05T22:18:14.046Z,4.70
2019-04-05T22:20:42.590Z,4.70
2019-04-05T22:23:10.851Z,4.60
2019-04-05T22:25:39.182Z,5.27
2019-04-05T22:28:07.459Z,4.60
2019-04-05T22:30:35.899Z,4.97
2019-04-05T22:33:04.160Z,5.20
2019-04-05T22:35:32.582Z,4.83
2019-04-05T22:38:00.846Z,5.03
2019-04-05T22:40:29.106Z,4.87
2019-04-05T22:42:57.374Z,4.80
2019-04-05T22:45:25.626Z,4.57
2019-04-05T22:47:53.895Z,5.07
2019-04-05T22:50:22.814Z,4.67
2019-04-05T22:52:51.091Z,4.83
2019-04-05T22:55:19.356Z,4.57
2019-04-05T22:57:47.618Z,4.60
2019-04-05T23:00:15.888Z,4.57
2019-04-05T23:02:44.146Z,4.40
2019-04-05T23:05:13.186Z,4.37
2019-04-05T23:07:41.498Z,4.70
2019-04-05T23:10:09.750Z,4.27
2019-04-05T23:12:38.033Z,3.93
2019-04-05T23:15:08.088Z,4.30
2019-04-05T23:17:36.359Z,4.40
2019-04-05T23:20:05.558Z,4.60
2019-04-05T23:22:33.824Z,3.97
2019-04-05T23:25:02.560Z,4.33
2019-04-05T23:27:30.829Z,4.73
2019-04-05T23:29:59.086Z,3.93
2019-04-05T23:32:27.385Z,4.27
2019-04-05T23:34:55.639Z,4.60
2019-04-05T23:37:23.901Z,4.50
2019-04-05T23:39:52.157Z,3.93
2019-04-05T23:42:20.791Z,4.20
2019-04-05T23:44:49.057Z,4.27
2019-04-05T23:47:17.314Z,4.13
2019-04-05T23:49:45.580Z,4.20
2019-04-05T23:52:13.838Z,4.20
2019-04-05T23:54:42.106Z,3.90
2019-04-05T23:57:10.376Z,4.00
2019-04-05T23:59:39.275Z,4.30
